createdAt,value
2018-02-08T00:00:30.615Z,-2.39
2018-02-08T00:02:58.062Z,-2.43
2018-02-08T00:05:25.554Z,-2.47
2018-02-08T00:07:53.013Z,-2.47
2018-02-08T00:10:20.458Z,-2.41
2018-02-08T00:12:47.922Z,-2.46
2018-02-08T00:15:15.374Z,-2.41
2018-02-08T00:17:42.875Z,-2.43
2018-02-08T00:20:10.350Z,-2.28
2018-02-08T00:22:45.785Z,-2.30
2018-02-08T00:25:13.259Z,-2.31
2018-02-08T00:27:40.713Z,-2.35
2018-02-08T00:30:08.162Z,-2.32
2018-02-08T00:32:35.606Z,-2.36
2018-02-08T00:35:03.051Z,-2.38
2018-02-08T00:37:30.511Z,-2.41
2018-02-08T00:39:57.973Z,-2.42
2018-02-08T00:42:25.418Z,-2.41
2018-02-08T00:44:52.866Z,-2.33
2018-02-08T00:47:20.343Z,-2.30
2018-02-08T00:49:47.787Z,-2.33
2018-02-08T00:52:15.225Z,-2.27
2018-02-08T00:54:42.671Z,-2.31
2018-02-08T00:57:10.119Z,-2.19
2018-02-08T00:59:37.558Z,-2.25
2018-02-08T01:02:05.006Z,-2.23
2018-02-08T01:04:32.467Z,-2.20
2018-02-08T01:06:59.922Z,-2.20
2018-02-08T01:09:27.371Z,-2.23
2018-02-08T01:11:54.834Z,-2.26
2018-02-08T01:14:22.808Z,-2.25
2018-02-08T01:16:50.269Z,-2.25
2018-02-08T01:19:17.731Z,-2.27
2018-02-08T01:21:45.183Z,-2.30
2018-02-08T01:24:12.630Z,-2.27
2018-02-08T01:26:40.070Z,-2.27
2018-02-08T01:29:07.529Z,-2.27
2018-02-08T01:31:34.976Z,-2.27
2018-02-08T01:34:02.440Z,-2.22
2018-02-08T01:36:29.882Z,-2.22
2018-02-08T01:38:57.332Z,-2.25
2018-02-08T01:41:24.778Z,-2.26
2018-02-08T01:43:52.271Z,-2.24
2018-02-08T01:46:19.710Z,-2.28
2018-02-08T01:48:47.160Z,-2.30
2018-02-08T01:51:14.606Z,-2.30
2018-02-08T01:53:42.042Z,-2.28
2018-02-08T01:56:09.513Z,-2.23
2018-02-08T01:58:36.957Z,-2.18
2018-02-08T02:01:04.410Z,-2.18
2018-02-08T02:03:31.849Z,-2.18
2018-02-08T02:05:59.311Z,-2.18
2018-02-08T02:08:26.745Z,-2.23
2018-02-08T02:10:54.233Z,-2.22
2018-02-08T02:13:21.669Z,-2.22
2018-02-08T02:15:49.105Z,-2.17
2018-02-08T02:18:16.555Z,-2.15
2018-02-08T02:20:44.006Z,-2.11
2018-02-08T02:23:11.449Z,-2.14
2018-02-08T02:25:38.900Z,-2.15
2018-02-08T02:28:06.345Z,-2.15
2018-02-08T02:30:33.788Z,-2.13
2018-02-08T02:33:01.242Z,-2.18
2018-02-08T02:35:28.699Z,-2.22
2018-02-08T02:37:56.165Z,-2.19
2018-02-08T02:40:23.613Z,-2.20
2018-02-08T02:42:51.067Z,-2.16
2018-02-08T02:45:18.538Z,-2.18
2018-02-08T02:47:45.983Z,-2.10
2018-02-08T02:50:13.434Z,-2.05
2018-02-08T02:52:40.871Z,-2.12
2018-02-08T02:55:08.324Z,-2.13
2018-02-08T02:57:35.758Z,-2.10
2018-02-08T03:00:03.222Z,-2.07
2018-02-08T03:02:30.662Z,-2.12
2018-02-08T03:04:58.707Z,-2.16
2018-02-08T03:07:26.149Z,-2.18
2018-02-08T03:09:53.593Z,-2.22
2018-02-08T03:12:21.053Z,-2.21
2018-02-08T03:14:48.493Z,-2.20
2018-02-08T03:17:15.928Z,-2.19
2018-02-08T03:19:43.365Z,-2.09
2018-02-08T03:22:10.822Z,-2.11
2018-02-08T03:24:38.257Z,-2.15
2018-02-08T03:27:05.714Z,-2.10
2018-02-08T03:29:33.147Z,-2.02
2018-02-08T03:32:00.608Z,-2.07
2018-02-08T03:34:28.072Z,-2.06
2018-02-08T03:36:55.524Z,-2.00
2018-02-08T03:39:22.989Z,-2.00
2018-02-08T03:41:50.454Z,-2.01
2018-02-08T03:44:17.884Z,-1.95
2018-02-08T03:46:45.330Z,-2.00
2018-02-08T03:49:12.770Z,-2.03
2018-02-08T03:51:40.247Z,-2.14
2018-02-08T03:54:07.703Z,-2.21
2018-02-08T03:56:35.132Z,-2.18
2018-02-08T03:59:02.588Z,-2.16
2018-02-08T04:01:30.043Z,-2.11
2018-02-08T04:03:57.530Z,-2.17
2018-02-08T04:06:24.966Z,-2.14
2018-02-08T04:08:52.424Z,-2.15
2018-02-08T04:11:19.859Z,-2.03
2018-02-08T04:13:47.312Z,-2.08
2018-02-08T04:16:14.756Z,-2.09
2018-02-08T04:18:42.242Z,-2.07
2018-02-08T04:21:09.691Z,-2.01
2018-02-08T04:23:37.132Z,-2.01
2018-02-08T04:26:04.582Z,-1.97
2018-02-08T04:28:32.029Z,-2.06
2018-02-08T04:30:59.479Z,-2.04
2018-02-08T04:33:26.912Z,-2.03
2018-02-08T04:35:54.375Z,-2.00
2018-02-08T04:41:48.175Z,-2.15
2018-02-08T04:44:27.450Z,-2.14
2018-02-08T04:47:07.001Z,-2.17
2018-02-08T04:49:34.562Z,-2.18
2018-02-08T04:52:02.056Z,-2.20
2018-02-08T04:54:29.515Z,-2.22
2018-02-08T04:56:57.021Z,-2.20
2018-02-08T04:59:24.516Z,-2.18
2018-02-08T05:01:52.000Z,-2.20
2018-02-08T05:04:19.580Z,-2.12
2018-02-08T05:06:47.049Z,-2.17
2018-02-08T05:09:14.524Z,-2.17
2018-02-08T05:11:42.021Z,-2.19
2018-02-08T05:14:09.492Z,-2.22
2018-02-08T05:16:37.051Z,-2.22
2018-02-08T05:19:04.616Z,-2.17
2018-02-08T05:21:32.113Z,-2.21
2018-02-08T05:23:59.616Z,-2.16
2018-02-08T05:26:27.091Z,-2.20
2018-02-08T05:28:54.749Z,-2.12
2018-02-08T05:31:22.235Z,-2.17
2018-02-08T05:33:49.728Z,-2.19
2018-02-08T05:36:17.201Z,-2.14
2018-02-08T05:38:44.684Z,-0.53
2018-02-08T05:41:12.158Z,1.03
2018-02-08T05:43:39.659Z,1.52
2018-02-08T05:46:07.126Z,1.79
2018-02-08T05:48:34.668Z,1.29
2018-02-08T05:51:02.254Z,1.48
2018-02-08T05:53:29.734Z,-0.05
2018-02-08T05:55:57.240Z,-0.66
2018-02-08T05:58:24.714Z,-1.03
2018-02-08T06:00:52.191Z,-1.27
2018-02-08T06:03:19.679Z,-1.57
2018-02-08T06:05:47.192Z,-1.80
2018-02-08T06:08:14.674Z,-1.94
2018-02-08T06:10:42.141Z,-2.02
2018-02-08T06:13:09.624Z,-1.96
2018-02-08T06:15:37.105Z,-2.00
2018-02-08T06:18:04.593Z,-2.06
2018-02-08T06:20:32.115Z,-2.16
2018-02-08T06:22:59.592Z,-2.15
2018-02-08T06:25:27.081Z,-2.15
2018-02-08T06:27:54.628Z,-2.16
2018-02-08T06:30:22.141Z,-2.12
2018-02-08T06:32:49.664Z,-2.12
2018-02-08T06:35:17.413Z,-2.03
2018-02-08T06:37:44.890Z,-2.04
2018-02-08T06:40:12.365Z,-2.07
2018-02-08T06:42:39.840Z,-2.12
2018-02-08T06:45:07.319Z,-2.11
2018-02-08T06:47:34.793Z,-2.06
2018-02-08T06:50:02.300Z,-2.08
2018-02-08T06:52:29.767Z,-2.01
2018-02-08T06:54:57.322Z,-1.90
2018-02-08T06:57:24.783Z,-1.97
2018-02-08T06:59:52.327Z,-1.83
2018-02-08T07:02:19.799Z,-1.83
2018-02-08T07:04:47.386Z,-1.81
2018-02-08T07:07:14.949Z,-1.89
2018-02-08T07:09:42.419Z,-1.93
2018-02-08T07:12:10.014Z,-1.88
2018-02-08T07:14:37.573Z,-1.83
2018-02-08T07:17:05.144Z,-1.80
2018-02-08T07:19:32.604Z,-1.84
2018-02-08T07:22:00.077Z,-1.83
2018-02-08T07:24:27.660Z,-1.77
2018-02-08T07:26:55.227Z,-1.77
2018-02-08T07:29:22.723Z,-1.74
2018-02-08T07:31:50.263Z,-1.77
2018-02-08T07:34:17.849Z,-1.72
2018-02-08T07:36:45.452Z,-1.79
2018-02-08T07:39:12.941Z,-1.78
2018-02-08T07:41:40.441Z,-1.66
2018-02-08T07:44:07.934Z,-1.71
2018-02-08T07:46:35.537Z,-1.70
2018-02-08T07:49:03.496Z,-1.65
2018-02-08T07:51:30.973Z,-1.64
2018-02-08T07:53:59.482Z,-1.62
2018-02-08T07:56:27.042Z,-1.53
2018-02-08T07:58:54.551Z,-1.50
2018-02-08T08:01:22.054Z,-1.46
2018-02-08T08:03:49.620Z,-1.42
2018-02-08T08:06:17.083Z,-1.43
2018-02-08T08:08:44.566Z,-1.39
2018-02-08T08:11:12.053Z,-1.21
2018-02-08T08:13:39.565Z,-1.17
2018-02-08T08:16:07.060Z,-1.22
2018-02-08T08:18:34.547Z,-1.25
2018-02-08T08:21:02.041Z,-1.23
2018-02-08T08:23:29.545Z,-1.21
2018-02-08T08:25:57.033Z,-1.12
2018-02-08T08:28:24.513Z,-1.05
2018-02-08T08:30:51.999Z,-1.04
2018-02-08T08:33:19.564Z,-0.91
2018-02-08T08:35:47.182Z,-0.67
2018-02-08T08:38:14.683Z,-0.71
2018-02-08T08:40:42.202Z,-0.72
2018-02-08T08:43:09.707Z,-0.76
2018-02-08T08:45:37.247Z,-0.81
2018-02-08T08:48:04.749Z,-0.77
2018-02-08T08:50:32.229Z,-0.67
2018-02-08T08:52:59.740Z,-0.55
2018-02-08T08:55:27.241Z,-0.61
2018-02-08T08:57:54.767Z,-0.58
2018-02-08T09:00:22.255Z,-0.45
2018-02-08T09:02:49.761Z,-0.49
2018-02-08T09:05:17.263Z,-0.43
2018-02-08T09:07:44.838Z,-0.38
2018-02-08T09:10:12.363Z,-0.58
2018-02-08T09:12:39.853Z,-0.64
2018-02-08T09:15:07.374Z,-0.50
2018-02-08T09:17:34.901Z,-0.46
2018-02-08T09:20:02.410Z,-0.23
2018-02-08T09:22:29.930Z,-0.28
2018-02-08T09:24:58.278Z,-0.29
2018-02-08T09:27:25.867Z,-0.26
2018-02-08T09:29:53.460Z,-0.31
2018-02-08T09:32:21.173Z,-0.37
2018-02-08T09:34:48.750Z,-0.17
2018-02-08T09:37:16.399Z,-0.32
2018-02-08T09:39:43.903Z,-0.31
2018-02-08T09:42:11.392Z,-0.30
2018-02-08T09:44:39.000Z,-0.11
2018-02-08T09:47:06.792Z,-0.12
2018-02-08T09:49:34.285Z,-0.25
2018-02-08T09:52:01.797Z,-0.18
2018-02-08T09:54:29.655Z,-0.06
2018-02-08T09:56:57.222Z,0.15
2018-02-08T09:59:25.713Z,0.34
2018-02-08T10:01:53.214Z,0.43
2018-02-08T10:04:20.683Z,0.63
2018-02-08T10:06:48.170Z,0.55
2018-02-08T10:09:15.641Z,0.64
2018-02-08T10:11:43.123Z,0.49
2018-02-08T10:14:10.597Z,0.56
2018-02-08T10:16:38.110Z,0.42
2018-02-08T10:19:05.577Z,0.51
2018-02-08T10:21:33.127Z,0.36
2018-02-08T10:24:00.680Z,0.50
2018-02-08T10:26:28.209Z,0.34
2018-02-08T10:28:55.773Z,0.59
2018-02-08T10:31:23.225Z,0.72
2018-02-08T10:33:50.722Z,0.72
2018-02-08T10:36:18.217Z,0.83
2018-02-08T10:38:45.738Z,1.01
2018-02-08T10:41:13.212Z,0.77
2018-02-08T10:43:40.798Z,0.82
2018-02-08T10:46:08.283Z,0.76
2018-02-08T10:48:35.745Z,0.94
2018-02-08T10:51:03.214Z,1.03
2018-02-08T10:53:30.683Z,0.90
2018-02-08T10:55:58.196Z,0.99
2018-02-08T10:58:25.716Z,1.16
2018-02-08T11:00:53.210Z,1.50
2018-02-08T11:03:20.707Z,1.36
2018-02-08T11:05:48.193Z,1.64
2018-02-08T11:08:15.657Z,1.55
2018-02-08T11:10:43.150Z,1.53
2018-02-08T11:13:10.617Z,1.48
2018-02-08T11:15:38.115Z,1.43
2018-02-08T11:18:05.591Z,1.48
2018-02-08T11:20:33.153Z,1.23
2018-02-08T11:23:00.650Z,1.10
2018-02-08T11:25:28.123Z,1.21
2018-02-08T11:27:55.614Z,1.11
2018-02-08T11:30:23.121Z,0.98
2018-02-08T11:32:50.619Z,0.87
2018-02-08T11:35:18.201Z,1.02
2018-02-08T11:37:45.703Z,0.95
2018-02-08T11:40:13.203Z,0.94
2018-02-08T11:42:40.744Z,0.87
2018-02-08T11:47:42.158Z,1.01
2018-02-08T11:50:09.645Z,1.05
2018-02-08T11:52:37.115Z,1.27
2018-02-08T11:55:04.622Z,1.25
2018-02-08T11:57:32.099Z,1.32
2018-02-08T11:59:59.611Z,1.09
2018-02-08T12:02:27.166Z,0.87
2018-02-08T12:04:54.658Z,0.91
2018-02-08T12:07:22.121Z,0.90
2018-02-08T12:09:49.713Z,0.81
2018-02-08T12:12:17.205Z,0.81
2018-02-08T12:14:44.689Z,0.72
2018-02-08T12:17:12.235Z,0.78
2018-02-08T12:19:39.722Z,0.73
2018-02-08T12:22:07.182Z,0.56
2018-02-08T12:24:34.664Z,0.55
2018-02-08T12:27:02.434Z,0.50
2018-02-08T12:29:29.930Z,0.58
2018-02-08T12:31:57.409Z,0.65
2018-02-08T12:34:24.880Z,0.78
2018-02-08T12:36:52.354Z,0.92
2018-02-08T12:39:19.824Z,0.88
2018-02-08T12:41:47.341Z,0.83
2018-02-08T12:44:14.801Z,0.70
2018-02-08T12:46:42.382Z,0.60
2018-02-08T12:49:09.952Z,0.71
2018-02-08T12:51:37.480Z,0.70
2018-02-08T12:54:04.938Z,0.98
2018-02-08T12:56:32.483Z,0.92
2018-02-08T12:58:59.953Z,0.70
2018-02-08T13:01:27.404Z,0.71
2018-02-08T13:03:54.879Z,0.81
2018-02-08T13:06:22.345Z,0.65
2018-02-08T13:08:49.928Z,0.68
2018-02-08T13:11:17.516Z,0.80
2018-02-08T13:13:44.986Z,0.75
2018-02-08T13:16:12.558Z,0.71
2018-02-08T13:18:40.013Z,0.64
2018-02-08T13:21:07.649Z,0.71
2018-02-08T13:23:35.128Z,0.78
2018-02-08T13:26:02.600Z,0.75
2018-02-08T13:28:30.091Z,0.78
2018-02-08T13:30:57.608Z,0.94
2018-02-08T13:33:25.090Z,1.03
2018-02-08T13:35:52.603Z,0.94
2018-02-08T13:38:20.113Z,1.28
2018-02-08T13:40:49.994Z,1.30
2018-02-08T13:43:17.504Z,1.35
2018-02-08T13:45:44.991Z,1.28
2018-02-08T13:48:14.940Z,1.23
2018-02-08T13:50:59.224Z,1.26
2018-02-08T13:56:31.470Z,1.39
2018-02-08T13:59:00.817Z,1.18
2018-02-08T14:01:32.064Z,1.23
2018-02-08T14:03:59.575Z,1.18
2018-02-08T14:06:27.069Z,1.09
2018-02-08T14:08:54.613Z,0.98
2018-02-08T14:11:22.107Z,0.96
2018-02-08T14:13:49.571Z,0.95
2018-02-08T14:16:17.050Z,0.89
2018-02-08T14:18:44.578Z,0.76
2018-02-08T14:21:12.050Z,0.73
2018-02-08T14:23:39.501Z,0.92
2018-02-08T14:26:06.985Z,0.95
2018-02-08T14:28:34.479Z,0.83
2018-02-08T14:31:02.095Z,0.78
2018-02-08T14:33:29.632Z,0.62
2018-02-08T14:35:57.200Z,0.62
2018-02-08T14:38:24.664Z,0.58
2018-02-08T14:40:52.243Z,0.58
2018-02-08T14:43:19.719Z,0.68
2018-02-08T14:45:47.193Z,0.47
2018-02-08T14:48:14.764Z,0.49
2018-02-08T14:50:42.233Z,0.39
2018-02-08T14:53:09.712Z,0.41
2018-02-08T14:55:37.266Z,0.42
2018-02-08T14:58:04.745Z,0.46
2018-02-08T15:00:32.216Z,0.37
2018-02-08T15:02:59.710Z,0.45
2018-02-08T15:05:27.186Z,0.48
2018-02-08T15:07:54.669Z,0.50
2018-02-08T15:10:22.129Z,0.48
2018-02-08T15:12:49.704Z,0.55
2018-02-08T15:15:17.234Z,0.51
2018-02-08T15:17:44.705Z,0.52
2018-02-08T15:20:12.168Z,0.41
2018-02-08T15:22:39.646Z,0.36
2018-02-08T15:25:07.140Z,0.31
2018-02-08T15:27:34.634Z,0.33
2018-02-08T15:30:04.933Z,0.35
2018-02-08T15:32:32.498Z,0.32
2018-02-08T15:35:00.012Z,0.49
2018-02-08T15:37:27.540Z,0.34
2018-02-08T15:39:54.991Z,0.33
2018-02-08T15:42:22.478Z,0.30
2018-02-08T15:44:49.950Z,0.34
2018-02-08T15:47:17.422Z,0.28
2018-02-08T15:49:44.928Z,0.30
2018-02-08T15:52:12.417Z,0.33
2018-02-08T15:54:39.888Z,0.22
2018-02-08T15:57:07.395Z,0.26
2018-02-08T15:59:34.929Z,0.25
2018-02-08T16:02:02.395Z,0.13
2018-02-08T16:04:29.909Z,0.18
2018-02-08T16:06:57.365Z,0.21
2018-02-08T16:09:24.853Z,0.12
2018-02-08T16:11:52.309Z,0.10
2018-02-08T16:14:19.895Z,0.03
2018-02-08T16:16:47.360Z,0.06
2018-02-08T16:19:14.863Z,-0.03
2018-02-08T16:21:42.391Z,-0.13
2018-02-08T16:24:09.873Z,-0.25
2018-02-08T16:26:37.443Z,-0.18
2018-02-08T16:29:05.041Z,-0.25
2018-02-08T16:31:32.553Z,-0.23
2018-02-08T16:34:00.083Z,-0.20
2018-02-08T16:36:27.632Z,-0.19
2018-02-08T16:38:55.237Z,-0.14
2018-02-08T16:41:22.790Z,-0.15
2018-02-08T16:43:50.258Z,-0.10
2018-02-08T16:46:17.747Z,-0.04
2018-02-08T16:48:45.229Z,0.06
2018-02-08T16:51:12.840Z,-0.01
2018-02-08T16:53:40.314Z,0.06
2018-02-08T16:56:07.802Z,0.07
2018-02-08T16:58:35.369Z,0.06
2018-02-08T17:01:02.888Z,0.10
2018-02-08T17:03:30.388Z,0.03
2018-02-08T17:05:57.857Z,0.06
2018-02-08T17:08:25.365Z,0.09
2018-02-08T17:10:52.845Z,-0.02
2018-02-08T17:13:20.336Z,0.02
2018-02-08T17:15:47.811Z,0.03
2018-02-08T17:18:15.322Z,-0.06
2018-02-08T17:20:42.793Z,-0.05
2018-02-08T17:23:10.278Z,0.01
2018-02-08T17:25:37.761Z,-0.07
2018-02-08T17:28:05.311Z,-0.03
2018-02-08T17:30:32.739Z,-0.04
2018-02-08T17:33:00.295Z,-0.07
2018-02-08T17:35:27.901Z,-0.14
2018-02-08T17:37:55.400Z,-0.13
2018-02-08T17:40:22.866Z,-0.08
2018-02-08T17:42:50.340Z,-0.06
2018-02-08T17:45:17.853Z,-0.10
2018-02-08T17:47:45.337Z,-0.14
2018-02-08T17:50:12.849Z,-0.09
2018-02-08T17:52:40.414Z,0.04
2018-02-08T17:55:07.984Z,0.08
2018-02-08T17:57:35.470Z,0.12
2018-02-08T18:00:02.948Z,0.15
2018-02-08T18:02:30.426Z,0.14
2018-02-08T18:04:57.897Z,0.14
2018-02-08T18:07:25.393Z,-0.01
2018-02-08T18:09:52.881Z,-0.03
2018-02-08T18:12:20.392Z,0.72
2018-02-08T18:14:47.855Z,1.16
2018-02-08T18:17:15.620Z,1.38
2018-02-08T18:19:43.133Z,1.22
2018-02-08T18:22:11.880Z,1.04
2018-02-08T18:24:39.345Z,0.79
2018-02-08T18:27:06.841Z,0.61
2018-02-08T18:29:34.414Z,0.46
2018-02-08T18:32:01.886Z,0.23
2018-02-08T18:34:29.385Z,0.10
2018-02-08T18:36:57.026Z,-0.01
2018-02-08T18:39:24.591Z,-0.10
2018-02-08T18:41:52.055Z,-0.16
2018-02-08T18:44:19.633Z,-0.26
2018-02-08T18:46:47.232Z,-0.38
2018-02-08T18:49:14.790Z,-0.49
2018-02-08T18:51:42.361Z,-0.54
2018-02-08T18:54:09.831Z,-0.63
2018-02-08T18:56:37.309Z,-0.71
2018-02-08T18:59:04.871Z,-0.81
2018-02-08T19:01:32.366Z,-0.88
2018-02-08T19:03:59.911Z,-0.99
2018-02-08T19:06:27.500Z,-1.05
2018-02-08T19:08:54.993Z,-1.13
2018-02-08T19:11:22.498Z,-1.20
2018-02-08T19:13:49.964Z,-1.24
2018-02-08T19:16:17.438Z,-1.23
2018-02-08T19:18:44.994Z,-1.22
2018-02-08T19:21:12.475Z,-1.24
2018-02-08T19:23:39.978Z,-1.19
2018-02-08T19:26:07.449Z,-1.15
2018-02-08T19:28:34.929Z,-1.08
2018-02-08T19:31:02.501Z,-1.06
2018-02-08T19:33:29.980Z,-1.06
2018-02-08T19:35:57.472Z,-1.02
2018-02-08T19:38:24.953Z,-0.98
2018-02-08T19:40:52.420Z,-0.95
2018-02-08T19:43:19.950Z,-0.98
2018-02-08T19:45:47.460Z,-1.00
2018-02-08T19:48:14.961Z,-1.01
2018-02-08T19:50:42.463Z,-0.98
2018-02-08T19:53:09.941Z,-0.96
2018-02-08T19:55:37.426Z,-0.94
2018-02-08T19:58:04.921Z,-1.03
2018-02-08T20:00:32.421Z,-1.04
2018-02-08T20:02:59.895Z,-1.00
2018-02-08T20:05:27.372Z,-0.98
2018-02-08T20:07:54.842Z,-1.01
2018-02-08T20:10:22.313Z,-0.97
2018-02-08T20:12:49.881Z,-0.98
2018-02-08T20:15:33.189Z,-0.90
2018-02-08T20:18:00.692Z,-0.95
2018-02-08T20:20:28.278Z,-0.96
2018-02-08T20:22:55.742Z,-0.96
2018-02-08T20:25:28.871Z,-0.95
2018-02-08T20:27:56.352Z,-0.97
2018-02-08T20:30:23.843Z,-1.03
2018-02-08T20:32:51.374Z,-0.99
2018-02-08T20:35:18.848Z,-0.98
2018-02-08T20:37:46.403Z,-0.95
2018-02-08T20:40:23.036Z,-0.97
2018-02-08T20:42:56.187Z,-1.01
2018-02-08T20:45:23.653Z,-0.95
2018-02-08T20:47:51.243Z,-0.97
2018-02-08T20:50:18.751Z,-1.07
2018-02-08T20:52:46.220Z,-1.16
2018-02-08T20:55:13.682Z,-1.13
2018-02-08T20:57:41.147Z,-1.10
2018-02-08T21:00:08.621Z,-1.13
2018-02-08T21:02:36.088Z,-1.13
2018-02-08T21:05:03.615Z,-1.16
2018-02-08T21:07:31.136Z,-1.15
2018-02-08T21:09:58.631Z,-1.11
2018-02-08T21:12:26.106Z,-1.12
2018-02-08T21:14:53.613Z,-1.14
2018-02-08T21:17:21.077Z,-1.17
2018-02-08T21:19:48.563Z,-1.16
2018-02-08T21:22:16.038Z,-1.23
2018-02-08T21:24:43.529Z,-1.21
2018-02-08T21:27:11.026Z,-1.26
2018-02-08T21:29:38.541Z,-1.36
2018-02-08T21:32:06.057Z,-1.36
2018-02-08T21:34:33.554Z,-1.43
2018-02-08T21:37:01.098Z,-1.49
2018-02-08T21:39:28.613Z,-1.59
2018-02-08T21:41:56.088Z,-1.71
2018-02-08T21:44:23.584Z,-1.81
2018-02-08T21:46:51.122Z,-1.93
2018-02-08T21:49:18.840Z,-2.03
2018-02-08T21:51:46.368Z,-2.09
2018-02-08T21:54:13.893Z,-2.16
2018-02-08T21:56:41.454Z,-2.20
2018-02-08T21:59:08.933Z,-2.24
2018-02-08T22:01:36.432Z,-2.35
2018-02-08T22:04:03.905Z,-2.40
2018-02-08T22:06:31.483Z,-2.46
2018-02-08T22:11:32.779Z,-2.57
2018-02-08T22:14:00.275Z,-2.66
2018-02-08T22:16:27.791Z,-2.74
2018-02-08T22:18:55.264Z,-2.76
2018-02-08T22:21:22.754Z,-2.77
2018-02-08T22:23:57.833Z,-2.83
2018-02-08T22:26:25.318Z,-2.89
2018-02-08T22:28:52.795Z,-2.89
2018-02-08T22:31:20.285Z,-3.03
2018-02-08T22:33:47.813Z,-3.04
2018-02-08T22:36:15.399Z,-3.07
2018-02-08T22:38:42.878Z,-3.14
2018-02-08T22:41:10.355Z,-3.21
2018-02-08T22:43:37.877Z,-3.22
2018-02-08T22:46:05.379Z,-3.24
2018-02-08T22:48:32.886Z,-3.28
2018-02-08T22:51:00.480Z,-3.31
2018-02-08T22:53:27.970Z,-3.34
2018-02-08T22:55:55.472Z,-3.36
2018-02-08T22:58:22.976Z,-3.38
2018-02-08T23:00:50.458Z,-3.42
2018-02-08T23:03:17.944Z,-3.44
2018-02-08T23:05:45.417Z,-3.48
2018-02-08T23:08:12.987Z,-3.52
2018-02-08T23:10:40.562Z,-3.57
2018-02-08T23:13:08.045Z,-3.62
2018-02-08T23:15:35.547Z,-3.63
2018-02-08T23:18:03.071Z,-3.66
2018-02-08T23:20:30.693Z,-3.71
2018-02-08T23:22:58.202Z,-3.71
2018-02-08T23:25:25.671Z,-3.69
2018-02-08T23:27:53.261Z,-3.67
2018-02-08T23:30:20.773Z,-3.68
2018-02-08T23:32:48.245Z,-3.71
2018-02-08T23:35:15.748Z,-3.74
2018-02-08T23:37:43.207Z,-3.75
2018-02-08T23:40:10.697Z,-3.83
2018-02-08T23:42:38.174Z,-3.85
2018-02-08T23:45:05.670Z,-3.84
2018-02-08T23:47:33.222Z,-3.85
2018-02-08T23:50:00.712Z,-3.81
2018-02-08T23:52:28.257Z,-3.77
2018-02-08T23:54:55.933Z,-3.72
2018-02-08T23:57:23.397Z,-3.65
2018-02-08T23:59:50.917Z,-3.60
